Angleton, TX

10:37 AM CST on March 02, 2015 (GMT -0600)
Angleton, West Side | Change Station
CLOSE
Current Station
Personal Weather Station
Location: Angleton, TX
Elevation: 30 ft
Nearby Weather Stations

Elev 30 ft 29.16 °N, 95.44 °W | Updated 3 minutes ago

Fog
Fog
56.7 °F
Feels Like 56.7 °F
N
4.7
Wind Variable Wind from North
Gusts 4.7 mph

Today
High -- | Low -- °F
--% Chance of Precip.
Yesterday
High -- | Low -- °F
Precip. -- in
6:46 AM 6:21 PM
Waxing Gibbous, 92% visible
Pressure 30.29 in
Visibility 1.5 miles
Clouds Overcast 300 ft
Dew Point 50 °F
Humidity 78%
Rainfall 0.00 in
Snow Depth Not available.
UV 1 out of 12
Pollen 6.60 out of 12
Air Quality Not available.
Flu Activity Not available.
METAR KLBX 021553Z AUTO 35006KT 1 1/2SM BR OVC003 11/11 A3029 RMK AO2 SLP257 T01060106

More Conditions Fewer Conditions

Pressure 30.29 in
Visibility 1.5 miles
Clouds Overcast 300 ft
Dew Point 50 °F
Humidity 78%
Rainfall 0.00 in
Snow Depth Not available.
UV 1 out of 12
Pollen 6.60 out of 12
Air Quality Not available.
Flu Activity Not available.
METAR KLBX 021553Z AUTO 35006KT 1 1/2SM BR OVC003 11/11 A3029 RMK AO2 SLP257 T01060106

More Conditions Fewer Conditions

10-Day Weather Forecast

Almanac

Astronomy

Mar. 02, 2015 Rise Set
Actual Time
Civil Twilight
Nautical Twilight
Astronomical Twilight
Moon
Length of Visible Light
Length of Day
Tomorrow will be .
, % of the Moon is Illuminated

Today's Extremes

State Highs State Lows

Community

WunderPhotos

Upload Photos

1,801,840 photos uploaded!

WunderBlogs® & News

Nearby

Air Quality

  Air Quality AQ Index Pollutant
Not available.

Snow Depth

Station Depth Elevation

Earthquake Activity

City Distance Mag. Time & Date
Minimum magnitude displayed is 2.5.

Coastal Water Temperatures

Place Temperature

Nearby Weather Stations